Time;durP1;ratioP1;P1;durP2;ratioP2;P2;SDS_P1;SDS_P2;PMS_P1;PMS_P2;Temp;Humidity;BMP_temperature;BMP_pressure;BME280_temperature;BME280_humidity;BME280_pressure;Samples;Min_cycle;Max_cycle;Signal;HPM_P1;HPM_P2
2021/10/31 00:01:32;;;;;;;8.77;6.27;;;;;;;12.01;76.73;99933.34;5043342;28;20240;-80
2021/10/31 00:03:58;;;;;;;7.70;6.07;;;;;;;12.03;77.00;99938.56;5035353;28;20215;-80
2021/10/31 00:06:25;;;;;;;8.43;6.53;;;;;;;12.02;77.04;99937.72;5039648;28;20215;-81
2021/10/31 00:08:51;;;;;;;7.97;6.37;;;;;;;12.02;76.86;99931.53;5038962;28;20234;-82
2021/10/31 00:11:19;;;;;;;8.27;6.53;;;;;;;12.03;77.25;99933.22;5051800;28;20292;-80
2021/10/31 00:13:48;;;;;;;8.43;6.67;;;;;;;12.04;77.05;99935.78;5038587;28;20214;-81
2021/10/31 00:16:14;;;;;;;8.07;6.23;;;;;;;12.05;77.17;99925.94;5051733;28;20229;-80
2021/10/31 00:18:41;;;;;;;8.27;6.10;;;;;;;12.06;77.41;99936.50;5051503;28;20232;-81
2021/10/31 00:21:08;;;;;;;7.27;6.37;;;;;;;12.08;77.22;99942.56;5052351;28;20207;-80
2021/10/31 00:23:34;;;;;;;7.60;5.90;;;;;;;12.09;77.49;99949.59;5051590;28;20856;-79
2021/10/31 00:26:01;;;;;;;10.50;6.57;;;;;;;12.10;77.51;99943.28;5042490;28;20244;-80
2021/10/31 00:28:28;;;;;;;8.70;6.53;;;;;;;12.10;77.64;99948.63;5045471;28;20218;-80
2021/10/31 00:30:55;;;;;;;7.23;5.80;;;;;;;12.12;77.58;99948.50;5039461;28;20686;-80
2021/10/31 00:33:22;;;;;;;8.20;5.87;;;;;;;12.11;77.76;99950.34;5038790;28;20214;-80
2021/10/31 00:35:48;;;;;;;9.47;6.43;;;;;;;12.11;77.66;99957.50;5052002;28;20225;-80
2021/10/31 00:38:15;;;;;;;7.27;6.40;;;;;;;12.10;77.57;99963.81;5056397;28;20220;-80
2021/10/31 00:40:43;;;;;;;8.47;5.87;;;;;;;12.09;77.68;99965.63;5041823;28;20212;-80
2021/10/31 00:43:10;;;;;;;7.57;6.17;;;;;;;12.09;77.55;99970.97;5055745;28;20257;-81
2021/10/31 00:45:37;;;;;;;8.33;6.40;;;;;;;12.10;77.67;99971.81;5053336;28;20605;-81
2021/10/31 00:48:05;;;;;;;9.20;7.30;;;;;;;12.09;77.98;99973.63;5036056;28;20219;-80
2021/10/31 00:50:32;;;;;;;7.23;5.90;;;;;;;12.11;77.98;99962.81;5037536;28;20224;-81
2021/10/31 00:52:59;;;;;;;8.70;6.43;;;;;;;12.12;77.89;99972.53;5041177;28;20205;-80
2021/10/31 00:55:26;;;;;;;7.70;5.93;;;;;;;12.14;78.08;99974.13;5042855;28;20653;-81
2021/10/31 00:57:52;;;;;;;8.07;6.97;;;;;;;12.15;77.98;99964.28;5046524;28;20208;-80
2021/10/31 01:00:19;;;;;;;10.03;7.47;;;;;;;12.15;78.45;99977.63;5053953;28;20209;-79
2021/10/31 01:02:45;;;;;;;9.33;7.27;;;;;;;12.21;78.30;99973.59;5035448;28;20257;-80
2021/10/31 01:05:19;;;;;;;9.70;6.90;;;;;;;12.21;78.25;99974.44;5049321;28;20736;-80
2021/10/31 01:08:09;;;;;;;8.40;7.50;;;;;;;12.23;78.23;99972.50;5055977;28;20237;-80
2021/10/31 01:10:57;;;;;;;8.00;7.20;;;;;;;12.21;78.48;99978.94;5047827;28;20201;-80
2021/10/31 01:13:38;;;;;;;9.83;6.50;;;;;;;12.23;78.66;99979.66;5055194;28;20216;-79
2021/10/31 01:16:15;;;;;;;9.40;7.63;;;;;;;12.25;78.42;99978.56;5055036;28;20224;-81
2021/10/31 01:18:59;;;;;;;8.13;6.83;;;;;;;12.26;78.57;99982.09;5036069;28;20221;-79
2021/10/31 01:21:38;;;;;;;10.27;7.17;;;;;;;12.23;78.51;99988.53;5035121;28;20216;-81
2021/10/31 01:24:28;;;;;;;8.47;6.50;;;;;;;12.23;78.49;99982.34;5040508;28;20573;-81
2021/10/31 01:27:07;;;;;;;9.23;6.63;;;;;;;12.22;78.64;99965.47;5054585;28;20215;-81
2021/10/31 01:29:49;;;;;;;7.50;6.23;;;;;;;12.22;78.48;99965.47;5055640;28;20213;-81
2021/10/31 01:32:32;;;;;;;7.70;6.03;;;;;;;12.21;78.66;99969.09;5051650;28;20332;-81
2021/10/31 01:35:08;;;;;;;9.97;7.10;;;;;;;12.21;78.65;99974.44;5044073;28;20237;-81
2021/10/31 01:38:00;;;;;;;8.03;6.87;;;;;;;12.20;78.81;99990.59;5039147;28;20977;-80
2021/10/31 01:40:31;;;;;;;9.30;7.27;;;;;;;12.20;79.25;99986.09;5049614;28;20218;-81
2021/10/31 01:43:08;;;;;;;9.07;6.87;;;;;;;12.22;79.02;99983.31;5049992;28;20299;-81
2021/10/31 01:45:41;;;;;;;8.97;6.33;;;;;;;12.23;79.13;99991.19;5047790;28;20237;-81
2021/10/31 01:48:19;;;;;;;7.57;6.30;;;;;;;12.24;79.22;99979.53;5050385;28;20284;-80
2021/10/31 01:50:49;;;;;;;7.80;6.23;;;;;;;12.26;79.26;99977.59;5042098;28;20265;-80
2021/10/31 01:53:20;;;;;;;8.50;6.37;;;;;;;12.28;79.39;99986.34;5047830;28;20201;-80
2021/10/31 01:55:57;;;;;;;9.43;7.30;;;;;;;12.29;79.30;99988.03;5048833;28;20239;-80
2021/10/31 01:58:25;;;;;;;9.37;7.57;;;;;;;12.28;79.05;99988.16;5054020;28;20234;-80
2021/10/31 02:00:53;;;;;;;10.67;7.10;;;;;;;12.27;78.91;99994.47;5055202;28;20723;-81
2021/10/31 02:03:22;;;;;;;10.37;7.03;;;;;;;12.24;79.27;99998.22;5055017;28;20227;-80
2021/10/31 02:05:51;;;;;;;9.37;7.00;;;;;;;12.23;79.25;100001.03;5054389;28;20631;-81
2021/10/31 02:08:22;;;;;;;9.27;6.67;;;;;;;12.21;79.36;100001.16;5052413;28;20728;-80
2021/10/31 02:10:52;;;;;;;8.70;7.43;;;;;;;12.21;79.22;100001.16;5037055;28;20202;-80
2021/10/31 02:13:19;;;;;;;10.83;8.33;;;;;;;12.20;79.25;99998.59;5048301;28;20695;-80
2021/10/31 02:15:49;;;;;;;8.27;6.43;;;;;;;12.19;79.26;100000.41;5045584;28;20253;-80
2021/10/31 02:18:19;;;;;;;10.40;7.27;;;;;;;12.18;79.25;99993.41;5042427;28;20572;-80
2021/10/31 02:20:48;;;;;;;8.27;6.57;;;;;;;12.16;79.32;99998.03;5049774;28;20721;-80
2021/10/31 02:23:17;;;;;;;9.63;7.10;;;;;;;12.15;79.50;100001.66;5054646;28;20218;-80
2021/10/31 02:25:44;;;;;;;9.83;7.10;;;;;;;12.14;79.56;99999.97;5053296;28;20572;-80
2021/10/31 02:28:10;;;;;;;8.57;6.93;;;;;;;12.14;79.47;99989.28;5054353;28;20224;-81
2021/10/31 02:30:37;;;;;;;10.40;6.70;;;;;;;12.12;79.56;99994.75;5054550;28;20305;-79
2021/10/31 02:33:03;;;;;;;9.77;6.57;;;;;;;12.12;79.43;100001.91;5046885;28;20307;-81
2021/10/31 02:35:30;;;;;;;7.90;6.10;;;;;;;12.12;79.45;100000.06;5042991;28;20236;-81
2021/10/31 02:37:56;;;;;;;7.47;6.17;;;;;;;12.12;79.65;100004.56;5051332;28;20202;-80
2021/10/31 02:40:25;;;;;;;7.77;6.60;;;;;;;12.10;79.93;100010.03;5043964;28;20219;-80
2021/10/31 02:42:52;;;;;;;10.00;6.50;;;;;;;12.10;79.75;100009.19;5050039;28;20231;-80
2021/10/31 02:45:19;;;;;;;8.03;6.87;;;;;;;12.11;80.11;100014.41;5054442;28;20233;-80
2021/10/31 02:47:49;;;;;;;9.53;7.07;;;;;;;12.13;80.32;100019.63;5053824;28;20205;-79
2021/10/31 02:50:20;;;;;;;8.23;6.40;;;;;;;12.15;80.39;100017.66;5046584;28;20218;-79
2021/10/31 02:52:59;;;;;;;8.97;6.17;;;;;;;12.15;80.48;100020.34;5047400;28;20287;-79
2021/10/31 02:55:36;;;;;;;9.20;6.77;;;;;;;12.15;80.29;100023.00;5054535;28;20226;-80
2021/10/31 02:58:06;;;;;;;8.17;6.40;;;;;;;12.15;80.22;100029.19;5039143;28;20210;-79
2021/10/31 03:00:36;;;;;;;7.10;6.40;;;;;;;12.15;80.19;100023.88;5054042;28;20699;-79
2021/10/31 03:03:03;;;;;;;9.07;6.93;;;;;;;12.17;80.44;100029.09;5038797;28;20810;-80
2021/10/31 03:05:30;;;;;;;9.57;6.20;;;;;;;12.17;80.58;100026.41;5047955;28;20228;-80
2021/10/31 03:07:57;;;;;;;10.13;6.80;;;;;;;12.17;80.85;100018.41;5042985;28;20222;-81
2021/10/31 03:10:23;;;;;;;8.90;6.90;;;;;;;12.18;80.64;100033.44;5047077;28;20216;-81
2021/10/31 03:12:51;;;;;;;8.93;7.40;;;;;;;12.18;80.83;100030.78;5041165;28;20212;-81
2021/10/31 03:15:18;;;;;;;8.30;7.00;;;;;;;12.19;80.71;100035.13;5051725;28;20234;-80
2021/10/31 03:17:45;;;;;;;10.67;7.97;;;;;;;12.18;81.08;100040.59;5046776;28;20217;-81
2021/10/31 03:20:12;;;;;;;9.40;6.60;;;;;;;12.18;80.90;100039.59;5047501;28;20207;-81
2021/10/31 03:22:39;;;;;;;8.07;7.00;;;;;;;12.19;81.01;100037.78;5037987;28;20233;-81
2021/10/31 03:25:06;;;;;;;8.67;7.30;;;;;;;12.18;81.13;100041.47;5044037;28;20235;-81
2021/10/31 03:27:33;;;;;;;8.47;7.00;;;;;;;12.18;81.35;100045.94;5045074;28;20213;-81
2021/10/31 03:30:01;;;;;;;8.67;7.20;;;;;;;12.15;81.10;100047.03;5045437;28;20665;-79
2021/10/31 03:32:28;;;;;;;9.33;7.87;;;;;;;12.12;81.42;100044.59;5038236;28;20691;-79
2021/10/31 03:34:54;;;;;;;8.87;7.10;;;;;;;12.09;81.33;100047.50;5052060;28;20235;-80
2021/10/31 03:37:21;;;;;;;8.03;6.67;;;;;;;12.06;81.10;100053.09;5048646;28;20202;-80
2021/10/31 03:39:47;;;;;;;8.00;6.97;;;;;;;12.04;81.17;100047.00;5053002;28;20527;-79
2021/10/31 03:42:14;;;;;;;8.47;6.40;;;;;;;12.02;81.42;100049.81;5127124;22;20332;-71
2021/10/31 03:44:48;;;;;;;8.07;6.73;;;;;;;12.02;81.51;100051.63;5111479;28;20683;-70
2021/10/31 03:47:16;;;;;;;8.10;7.13;;;;;;;12.02;81.46;100059.63;5082682;28;20316;-71
2021/10/31 03:49:42;;;;;;;9.80;7.43;;;;;;;12.01;81.89;100052.59;5079269;28;20208;-71
2021/10/31 03:52:09;;;;;;;8.40;7.13;;;;;;;12.01;81.74;100056.09;5079813;28;20216;-71
2021/10/31 03:54:35;;;;;;;9.10;7.13;;;;;;;12.02;81.79;100068.50;5083490;28;20214;-71
2021/10/31 03:57:02;;;;;;;10.30;7.83;;;;;;;12.01;82.00;100066.78;5078047;28;20239;-70
2021/10/31 03:59:28;;;;;;;9.60;7.83;;;;;;;12.00;81.84;100065.09;5085876;28;20208;-70
2021/10/31 04:01:55;;;;;;;10.87;8.37;;;;;;;12.00;82.14;100067.75;5070414;28;20205;-70
2021/10/31 04:04:23;;;;;;;12.67;8.93;;;;;;;12.00;82.01;100069.59;5080510;28;20226;-71
2021/10/31 04:06:49;;;;;;;9.60;7.97;;;;;;;11.98;82.05;100074.22;5088195;28;20219;-70
2021/10/31 04:09:16;;;;;;;10.17;8.77;;;;;;;11.97;82.36;100070.69;5088834;28;20204;-69
2021/10/31 04:11:42;;;;;;;11.43;9.13;;;;;;;11.95;82.19;100072.63;5079529;28;20215;-70
2021/10/31 04:14:09;;;;;;;10.13;8.53;;;;;;;11.94;82.30;100072.75;5073487;28;20587;-71
2021/10/31 04:16:36;;;;;;;11.83;8.93;;;;;;;11.91;82.25;100072.97;5084206;28;20612;-70
2021/10/31 04:19:03;;;;;;;10.53;8.83;;;;;;;11.89;82.24;100074.91;5090320;28;20200;-70
2021/10/31 04:21:31;;;;;;;10.57;8.50;;;;;;;11.86;82.33;100080.47;5089778;28;20208;-70
2021/10/31 04:23:57;;;;;;;10.30;8.93;;;;;;;11.82;82.31;100080.72;5084585;28;20721;-70
2021/10/31 04:26:24;;;;;;;10.70;8.43;;;;;;;11.80;82.46;100090.69;5088777;28;20224;-70
2021/10/31 04:28:50;;;;;;;10.63;8.97;;;;;;;11.78;82.38;100089.94;5090230;28;20211;-70
2021/10/31 04:31:17;;;;;;;10.37;8.60;;;;;;;11.75;82.52;100087.47;5088895;28;20530;-70
2021/10/31 04:33:43;;;;;;;10.50;8.80;;;;;;;11.74;82.73;100092.94;5073911;28;20218;-70
2021/10/31 04:36:11;;;;;;;10.63;8.77;;;;;;;11.71;82.62;100093.16;5090025;28;20260;-71
2021/10/31 04:38:39;;;;;;;12.17;9.13;;;;;;;11.68;82.79;100094.25;5074452;28;20488;-70
2021/10/31 04:41:07;;;;;;;13.43;10.20;;;;;;;11.65;82.85;100073.13;5076836;28;20661;-70
2021/10/31 04:43:33;;;;;;;11.83;8.93;;;;;;;11.63;82.83;100085.75;5077708;28;20234;-71
2021/10/31 04:46:00;;;;;;;11.07;9.77;;;;;;;11.59;82.77;100078.97;5068888;28;20239;-70
2021/10/31 04:48:26;;;;;;;10.80;8.80;;;;;;;11.55;82.80;100082.81;5071458;28;20213;-71
2021/10/31 04:50:54;;;;;;;14.57;9.97;;;;;;;11.53;82.79;100089.22;5072853;28;20215;-70
2021/10/31 04:53:21;;;;;;;11.40;9.03;;;;;;;11.47;82.62;100088.72;5073080;28;20207;-70
2021/10/31 04:55:49;;;;;;;11.97;9.43;;;;;;;11.44;82.69;100094.31;5069026;28;20229;-68
2021/10/31 04:58:16;;;;;;;11.60;9.03;;;;;;;11.41;82.57;100093.69;5069243;28;20209;-70
2021/10/31 05:00:42;;;;;;;10.17;8.97;;;;;;;11.35;82.40;100096.81;5070902;28;20209;-70
2021/10/31 05:03:09;;;;;;;12.97;10.43;;;;;;;11.27;82.23;100104.53;5069635;28;20229;-71
2021/10/31 05:05:36;;;;;;;12.50;10.33;;;;;;;11.20;82.37;100097.97;5069893;28;20231;-71
2021/10/31 05:08:04;;;;;;;13.57;11.53;;;;;;;11.15;82.67;100090.28;5082853;28;20213;-71
2021/10/31 05:10:30;;;;;;;14.60;11.13;;;;;;;11.12;82.95;100086.03;5069892;28;20304;-71
2021/10/31 05:12:58;;;;;;;13.40;11.00;;;;;;;11.11;82.95;100080.81;5071888;28;20585;-71
2021/10/31 05:15:25;;;;;;;12.87;10.47;;;;;;;11.07;83.18;100082.88;5070165;28;20208;-70
2021/10/31 05:17:51;;;;;;;13.47;10.70;;;;;;;11.04;83.04;100093.78;5069892;28;20212;-70
2021/10/31 05:20:18;;;;;;;13.50;10.37;;;;;;;11.01;83.09;100077.16;5070790;28;20239;-71
2021/10/31 05:22:45;;;;;;;13.47;9.50;;;;;;;10.95;82.98;100082.94;5073257;28;20228;-71
2021/10/31 05:25:13;;;;;;;13.43;9.43;;;;;;;10.89;83.03;100084.25;5072633;28;20263;-71
2021/10/31 05:27:40;;;;;;;12.63;9.63;;;;;;;10.83;82.83;100068.72;5086370;28;20251;-71
2021/10/31 05:30:10;;;;;;;13.03;10.47;;;;;;;10.74;82.18;100048.09;5086192;28;20670;-71
2021/10/31 05:32:38;;;;;;;10.70;9.47;;;;;;;10.66;82.49;100058.44;5073290;28;20244;-71
2021/10/31 05:35:07;;;;;;;12.03;9.23;;;;;;;10.58;82.44;100068.78;5072246;28;20216;-71
2021/10/31 05:37:39;;;;;;;11.03;9.33;;;;;;;10.53;82.39;100084.25;5073270;28;20598;-70
2021/10/31 05:40:08;;;;;;;12.67;11.17;;;;;;;10.49;82.65;100088.09;5085054;28;20693;-71
2021/10/31 05:42:35;;;;;;;11.83;9.83;;;;;;;10.46;82.95;100088.31;5087012;28;20217;-70
2021/10/31 05:45:01;;;;;;;16.30;11.43;;;;;;;10.44;83.09;100089.28;5073122;28;20232;-71
2021/10/31 05:47:30;;;;;;;16.30;11.57;;;;;;;10.44;83.19;100094.59;5075398;28;20237;-69
2021/10/31 05:49:56;;;;;;;17.47;13.20;;;;;;;10.47;83.49;100087.34;5072472;28;20205;-70
2021/10/31 05:52:23;;;;;;;16.80;13.50;;;;;;;10.50;83.98;100090.66;5077819;28;20213;-70
2021/10/31 05:54:50;;;;;;;17.57;13.90;;;;;;;10.55;84.32;100093.84;5076933;28;20204;-70
2021/10/31 05:57:16;;;;;;;19.97;15.27;;;;;;;10.60;84.67;100090.84;5077676;28;20255;-72
2021/10/31 05:59:43;;;;;;;19.93;14.40;;;;;;;10.62;84.83;100104.88;5076779;28;20697;-71
2021/10/31 06:02:10;;;;;;;19.30;14.00;;;;;;;10.63;85.22;100096.78;5078934;28;20208;-71
2021/10/31 06:04:39;;;;;;;20.70;14.93;;;;;;;10.66;85.36;100101.06;5080295;28;20233;-71
2021/10/31 06:07:06;;;;;;;17.93;14.17;;;;;;;10.68;85.79;100091.13;5076770;28;20228;-70
2021/10/31 06:09:32;;;;;;;20.47;15.10;;;;;;;10.71;85.87;100082.94;5072555;28;20220;-71
2021/10/31 06:11:59;;;;;;;20.37;14.57;;;;;;;10.73;85.82;100078.34;5073639;28;20665;-70
2021/10/31 06:14:26;;;;;;;19.33;14.67;;;;;;;10.74;86.07;100085.38;5072228;28;20201;-71
2021/10/31 06:16:52;;;;;;;21.17;15.20;;;;;;;10.74;86.39;100090.72;5084112;28;20228;-70
2021/10/31 06:19:19;;;;;;;19.13;14.13;;;;;;;10.74;86.42;100085.38;5072580;28;20221;-71
2021/10/31 06:21:47;;;;;;;21.30;14.70;;;;;;;10.75;86.46;100084.38;5084868;28;20212;-70
2021/10/31 06:24:14;;;;;;;19.33;14.00;;;;;;;10.75;86.64;100087.03;5071503;28;20229;-71
2021/10/31 06:26:40;;;;;;;21.70;15.03;;;;;;;10.74;86.57;100086.22;5076046;28;20764;-71
2021/10/31 06:29:07;;;;;;;17.77;13.87;;;;;;;10.74;86.49;100098.69;5092308;28;20208;-71
2021/10/31 06:31:33;;;;;;;18.63;14.33;;;;;;;10.74;86.63;100090.72;5075039;28;20213;-70
2021/10/31 06:34:00;;;;;;;22.77;15.27;;;;;;;10.73;86.97;100092.53;5071557;28;20674;-70
2021/10/31 06:36:26;;;;;;;21.90;15.37;;;;;;;10.72;87.01;100098.81;5071138;28;20235;-70
2021/10/31 06:38:55;;;;;;;20.90;14.00;;;;;;;10.74;86.93;100098.69;5072246;28;20229;-71
2021/10/31 06:41:22;;;;;;;21.30;15.70;;;;;;;10.72;86.94;100103.28;5079371;28;20210;-70
2021/10/31 06:43:48;;;;;;;19.23;15.10;;;;;;;10.74;87.30;100106.69;5072106;28;20225;-71
2021/10/31 06:46:15;;;;;;;23.23;16.73;;;;;;;10.74;87.47;100107.53;5071605;28;20225;-70
2021/10/31 06:48:41;;;;;;;21.63;15.70;;;;;;;10.76;87.55;100104.72;5072575;28;20585;-70
2021/10/31 06:51:08;;;;;;;21.70;15.77;;;;;;;10.78;87.49;100102.81;5071756;28;20225;-70
2021/10/31 06:53:35;;;;;;;21.20;15.53;;;;;;;10.80;87.74;100098.22;5085200;28;20658;-71
2021/10/31 06:56:03;;;;;;;21.67;15.57;;;;;;;10.84;87.90;100099.72;5089873;28;20225;-71
2021/10/31 06:58:30;;;;;;;21.03;15.60;;;;;;;10.86;88.24;100087.13;5079871;28;20208;-70
2021/10/31 07:00:56;;;;;;;22.57;16.40;;;;;;;10.89;88.08;100092.25;5074416;28;20205;-71
2021/10/31 07:03:23;;;;;;;20.60;15.97;;;;;;;10.90;88.24;100079.78;5081903;28;20574;-71
2021/10/31 07:05:49;;;;;;;19.70;15.23;;;;;;;10.92;88.10;100089.34;5086855;28;20607;-70
2021/10/31 07:08:16;;;;;;;21.87;16.00;;;;;;;10.94;88.26;100086.56;5071469;28;20209;-71
2021/10/31 07:10:42;;;;;;;21.37;15.73;;;;;;;10.94;88.34;100087.41;5073055;28;20589;-71
2021/10/31 07:13:10;;;;;;;21.30;15.73;;;;;;;10.97;88.26;100086.34;5082938;28;20208;-71
2021/10/31 07:15:37;;;;;;;20.97;15.43;;;;;;;10.97;88.40;100081.00;5071104;28;20210;-71
2021/10/31 07:18:04;;;;;;;19.53;15.07;;;;;;;10.97;88.48;100079.19;5070234;28;20216;-71
2021/10/31 07:20:30;;;;;;;20.43;15.27;;;;;;;10.98;88.66;100080.91;5070900;28;20621;-71
2021/10/31 07:22:57;;;;;;;22.20;15.53;;;;;;;11.01;88.38;100088.66;5077457;28;20209;-70
2021/10/31 07:25:27;;;;;;;22.77;17.20;;;;;;;11.02;88.48;100079.72;5075343;28;20239;-71
2021/10/31 07:27:55;;;;;;;21.57;16.00;;;;;;;11.04;88.43;100083.13;5077039;28;20208;-71
2021/10/31 07:30:24;;;;;;;18.77;14.60;;;;;;;11.07;88.78;100084.72;5074525;28;20235;-71
2021/10/31 07:32:55;;;;;;;20.83;15.10;;;;;;;11.09;88.55;100080.13;5080551;28;20244;-71
2021/10/31 07:35:22;;;;;;;19.03;14.50;;;;;;;11.11;88.66;100083.50;5084264;28;20200;-71
2021/10/31 07:37:48;;;;;;;18.47;14.63;;;;;;;11.13;88.60;100087.75;5070657;28;20732;-72
2021/10/31 07:40:15;;;;;;;18.13;13.80;;;;;;;11.16;88.72;100085.81;5070612;28;20219;-71
2021/10/31 07:42:41;;;;;;;21.23;15.07;;;;;;;11.20;88.74;100090.81;5085049;28;20220;-71
2021/10/31 07:45:09;;;;;;;19.70;15.70;;;;;;;11.23;88.83;100093.25;5069913;28;20436;-71
2021/10/31 07:47:37;;;;;;;19.37;15.17;;;;;;;11.26;88.83;100095.69;5069102;28;20726;-70
2021/10/31 07:50:04;;;;;;;21.60;15.10;;;;;;;11.28;88.86;100103.59;5070359;28;20224;-71
2021/10/31 07:52:31;;;;;;;19.20;15.43;;;;;;;11.32;88.97;100102.34;5070383;28;20216;-71
2021/10/31 07:54:59;;;;;;;19.80;15.33;;;;;;;11.36;89.11;100101.19;5070632;28;20205;-70
2021/10/31 07:57:28;;;;;;;19.03;14.97;;;;;;;11.39;89.03;100095.63;5070375;28;20713;-71
2021/10/31 07:59:55;;;;;;;20.57;15.63;;;;;;;11.44;89.31;100101.47;5084132;28;20665;-71
2021/10/31 08:02:21;;;;;;;18.57;15.43;;;;;;;11.48;89.19;100092.25;5091517;28;20210;-71
2021/10/31 08:04:49;;;;;;;17.67;14.70;;;;;;;11.53;89.27;100084.75;5088950;28;20225;-71
2021/10/31 08:07:16;;;;;;;18.20;15.43;;;;;;;11.57;89.31;100080.88;5071616;28;20616;-71
2021/10/31 08:09:43;;;;;;;23.67;16.50;;;;;;;11.64;89.56;100087.47;5085388;28;20240;-70
2021/10/31 08:12:10;;;;;;;21.27;16.93;;;;;;;11.70;89.56;100076.31;5089294;28;20202;-70
2021/10/31 08:14:36;;;;;;;20.77;16.23;;;;;;;11.78;89.67;100084.59;5083798;28;20244;-71
2021/10/31 08:17:03;;;;;;;19.30;15.43;;;;;;;11.88;89.71;100075.88;5081857;28;20411;-71
2021/10/31 08:19:30;;;;;;;17.63;14.70;;;;;;;11.97;89.94;100062.69;5081959;28;20206;-70
2021/10/31 08:21:57;;;;;;;20.07;14.90;;;;;;;12.10;89.88;100067.91;5084825;28;20204;-71
2021/10/31 08:24:24;;;;;;;18.53;15.33;;;;;;;12.21;90.08;100064.38;5085671;28;20625;-71
2021/10/31 08:26:51;;;;;;;18.43;14.90;;;;;;;12.32;90.15;100062.56;5083503;28;20224;-71
2021/10/31 08:29:20;;;;;;;17.20;14.33;;;;;;;12.42;90.02;100054.66;5087406;28;20196;-71
2021/10/31 08:31:49;;;;;;;16.07;14.07;;;;;;;12.52;89.80;100045.78;5075717;28;20204;-71
2021/10/31 08:34:16;;;;;;;16.47;14.33;;;;;;;12.63;89.66;100041.38;5076829;28;20727;-71
2021/10/31 08:36:43;;;;;;;16.70;13.00;;;;;;;12.74;89.12;100047.53;5080401;28;21764;-71
2021/10/31 08:39:11;;;;;;;15.90;12.60;;;;;;;12.86;89.16;100035.00;5078874;28;20220;-70
2021/10/31 08:41:38;;;;;;;14.23;11.63;;;;;;;12.97;88.69;100032.28;5071768;28;20258;-71
2021/10/31 08:44:06;;;;;;;12.67;10.70;;;;;;;13.10;88.08;100042.78;5079603;28;20994;-70
2021/10/31 08:46:33;;;;;;;11.70;10.00;;;;;;;13.21;87.91;100042.81;5078625;28;20223;-72
2021/10/31 08:49:01;;;;;;;10.10;9.03;;;;;;;13.36;87.78;100035.31;5077431;28;20207;-71
2021/10/31 08:51:27;;;;;;;10.73;9.17;;;;;;;13.48;87.11;100032.44;5073900;28;20574;-71
2021/10/31 08:53:55;;;;;;;9.13;8.13;;;;;;;13.63;86.43;100026.75;5077452;28;20212;-71
2021/10/31 08:56:23;;;;;;;9.43;7.93;;;;;;;13.77;86.00;100029.94;5083051;28;20220;-71
2021/10/31 08:58:50;;;;;;;8.47;7.07;;;;;;;13.92;85.32;100024.25;5082116;28;20212;-71
2021/10/31 09:01:17;;;;;;;6.77;6.00;;;;;;;14.01;84.46;100034.13;5083616;28;20196;-71
2021/10/31 09:03:45;;;;;;;7.03;6.10;;;;;;;14.09;83.64;100031.66;5083428;28;20754;-70
2021/10/31 09:06:12;;;;;;;5.67;5.07;;;;;;;14.14;82.98;100030.28;5079868;28;20235;-70
2021/10/31 09:08:41;;;;;;;5.67;5.17;;;;;;;14.18;81.97;100023.63;5079622;28;20217;-71
2021/10/31 09:11:08;;;;;;;5.00;4.03;;;;;;;14.23;81.49;100009.84;5082298;28;20209;-70
2021/10/31 09:13:36;;;;;;;9.20;4.17;;;;;;;14.26;81.08;100006.91;5082788;28;20210;-70
2021/10/31 09:16:02;;;;;;;4.27;3.87;;;;;;;14.30;80.31;100005.66;5082645;28;20228;-70
2021/10/31 09:18:29;;;;;;;4.70;4.27;;;;;;;14.32;79.88;100006.38;5082538;28;20661;-71
2021/10/31 09:20:56;;;;;;;3.80;3.20;;;;;;;14.36;79.40;99999.72;5082144;28;20285;-70
2021/10/31 09:23:23;;;;;;;4.83;3.43;;;;;;;14.41;79.43;99991.31;5084914;28;20197;-71
2021/10/31 09:25:50;;;;;;;4.40;4.00;;;;;;;14.45;79.18;99988.25;5080310;28;20271;-70
2021/10/31 09:28:17;;;;;;;4.87;4.30;;;;;;;14.48;78.57;99979.09;5091439;28;20583;-70
2021/10/31 09:30:45;;;;;;;5.27;3.90;;;;;;;14.54;78.00;99974.00;5093609;28;20586;-71
2021/10/31 09:33:12;;;;;;;4.50;4.00;;;;;;;14.57;77.80;99978.25;5077130;28;20219;-70
2021/10/31 09:35:44;;;;;;;4.97;4.27;;;;;;;14.63;77.82;99969.66;5092709;28;20291;-71
2021/10/31 09:38:11;;;;;;;5.43;4.77;;;;;;;14.73;77.93;99949.03;5089566;28;20222;-70
2021/10/31 09:40:38;;;;;;;5.30;4.80;;;;;;;14.84;77.93;99954.28;5073346;28;20213;-70
2021/10/31 09:43:05;;;;;;;5.43;4.80;;;;;;;14.89;77.43;99957.38;5072678;28;20589;-70
2021/10/31 09:45:33;;;;;;;5.23;4.77;;;;;;;14.93;77.34;99961.47;5085716;28;20608;-71
2021/10/31 09:48:03;;;;;;;6.50;4.87;;;;;;;14.97;76.68;99962.03;5072853;28;20209;-71
2021/10/31 09:50:34;;;;;;;4.60;4.20;;;;;;;15.02;76.63;99961.63;5073332;28;20260;-71
2021/10/31 09:53:01;;;;;;;4.90;4.40;;;;;;;15.04;76.57;99956.97;5079680;28;20212;-71
2021/10/31 09:55:28;;;;;;;5.50;4.50;;;;;;;15.08;76.21;99953.84;5088224;22;20236;-75
2021/10/31 09:57:55;;;;;;;5.50;4.47;;;;;;;15.09;76.29;99949.31;5065983;28;20209;-76
2021/10/31 10:00:34;;;;;;;4.73;4.33;;;;;;;15.11;76.16;99945.50;5063606;28;20297;-76
2021/10/31 10:03:21;;;;;;;4.80;3.80;;;;;;;15.13;76.02;99948.91;5063287;28;20201;-77
2021/10/31 10:05:48;;;;;;;5.20;3.93;;;;;;;15.14;75.65;99952.44;5058800;28;20229;-76
2021/10/31 10:08:16;;;;;;;4.40;4.00;;;;;;;15.15;75.57;99957.66;5061297;28;20697;-76
2021/10/31 10:10:46;;;;;;;4.30;3.90;;;;;;;15.15;75.68;99949.59;5064053;28;20216;-76
2021/10/31 10:13:22;;;;;;;4.10;3.70;;;;;;;15.17;75.37;99950.31;5065495;28;20213;-76
2021/10/31 10:15:50;;;;;;;3.73;3.40;;;;;;;15.19;75.59;99958.22;5059183;28;20227;-76
2021/10/31 10:18:33;;;;;;;4.40;3.87;;;;;;;15.20;75.72;99958.06;5066607;28;20202;-76
2021/10/31 10:21:20;;;;;;;5.23;3.83;;;;;;;15.19;75.55;99958.22;5061915;28;20208;-77
2021/10/31 10:23:52;;;;;;;4.33;3.60;;;;;;;15.22;75.26;99955.25;5064604;28;20198;-75
2021/10/31 10:26:24;;;;;;;4.77;3.60;;;;;;;15.23;75.55;99959.59;5058583;28;20557;-76
2021/10/31 10:28:51;;;;;;;3.50;3.20;;;;;;;15.26;75.14;99952.13;5059736;28;20659;-76
2021/10/31 10:31:22;;;;;;;4.33;3.67;;;;;;;15.28;75.43;99947.47;5057658;28;20213;-76
2021/10/31 10:33:51;;;;;;;4.57;4.00;;;;;;;15.34;75.21;99956.78;5057517;28;20213;-77
2021/10/31 10:36:18;;;;;;;4.67;3.87;;;;;;;15.38;75.29;99942.09;5060292;28;20229;-77
2021/10/31 10:38:59;;;;;;;4.43;3.30;;;;;;;15.46;75.29;99946.72;5062520;28;20210;-77
2021/10/31 10:41:46;;;;;;;6.00;5.40;;;;;;;15.50;74.81;99935.53;5055856;28;20679;-76
2021/10/31 10:44:21;;;;;;;3.67;3.17;;;;;;;15.55;74.81;99935.13;5057468;28;20663;-74
2021/10/31 10:46:50;;;;;;;4.93;3.23;;;;;;;15.60;73.88;99935.53;5054961;28;20217;-77
2021/10/31 10:49:20;;;;;;;3.37;3.07;;;;;;;15.63;73.94;99936.09;5053249;28;20238;-76
2021/10/31 10:51:47;;;;;;;3.07;2.73;;;;;;;15.68;73.85;99932.97;5053019;28;20298;-76
2021/10/31 10:54:15;;;;;;;3.23;2.47;;;;;;;15.74;73.60;99929.72;5071792;28;20682;-76
2021/10/31 10:57:00;;;;;;;3.47;3.17;;;;;;;15.80;73.37;99922.88;5065638;28;20325;-76
2021/10/31 10:59:27;;;;;;;3.70;3.00;;;;;;;15.86;73.24;99917.78;5063220;28;20224;-76
2021/10/31 11:02:12;;;;;;;2.30;2.10;;;;;;;15.94;72.98;99906.31;5068718;28;20218;-76
2021/10/31 11:04:41;;;;;;;3.10;2.20;;;;;;;16.05;72.85;99905.25;5052738;28;20231;-76
2021/10/31 11:07:09;;;;;;;4.37;2.40;;;;;;;16.09;72.81;99887.84;5050494;28;20592;-76
2021/10/31 11:09:40;;;;;;;2.93;2.40;;;;;;;16.15;72.47;99880.00;5060384;28;20611;-76
2021/10/31 11:12:22;;;;;;;2.73;2.50;;;;;;;16.21;72.31;99874.03;5064305;28;20585;-76
2021/10/31 11:14:49;;;;;;;3.77;2.40;;;;;;;16.25;72.06;99869.19;5063044;28;20218;-76
2021/10/31 11:17:17;;;;;;;2.60;2.40;;;;;;;16.30;71.85;99864.22;5058604;28;20208;-76
2021/10/31 11:19:46;;;;;;;2.87;2.20;;;;;;;16.32;71.50;99862.19;5055277;28;20213;-75
2021/10/31 11:22:13;;;;;;;4.57;2.73;;;;;;;16.32;71.38;99857.69;5058812;28;20207;-76
2021/10/31 11:24:41;;;;;;;3.07;2.77;;;;;;;16.33;71.21;99853.16;5056863;28;20229;-76
2021/10/31 11:27:10;;;;;;;3.43;2.33;;;;;;;16.35;71.12;99853.84;5056766;28;20203;-77
2021/10/31 11:29:36;;;;;;;2.30;1.83;;;;;;;16.37;71.23;99849.16;5063764;28;20212;-76